< < Back
Terminal Aerodrome Forecast


Current Version              Previous Versions:   1  2  3  4  5  6  7  8  9  

Terminal Aerodrome Forecast

611
FTUS42 KCAE 200600 AAA
TAFAGS
TAF AMD
KAGS 200600Z 2006/2106 VRB03KT P6SM -RA OVC060
     FM201100 03003KT 4SM -RA BR SCT007 BKN025
     FM201500 VRB03KT 6SM -RA SCT007 OVC025=

Latest METAR

640
SAUS70 KWBC 200600
MTRAGS
METAR KAGS 200553Z AUTO 00000KT 10SM -RA OVC080 09/06 A3014 RMK AO2
RAB16 SLP206 P0000 60000 T00890061 10100 20083 50003


USA.gov is the U.S. government's official web portal to all federal, state and local government web resources and services.